Terminal Aerodrome Forecast
Issued by NWS Charleston, SC

Home | Current Version | Previous Version | Text Only | Print | Product List | Glossary On
Versions: 1 2 3 4 5 6 7 8 9 10 11 12 13 14 15 16 17 18
000
FTUS42 KCHS 282338
TAFCHS
TAF
KCHS 282338Z 2900/2924 01011KT 2SM +RA SCT010 BKN015
     FM290230 03011KT 3SM RA BKN008 OVC015
     FM290600 03013G19KT 4SM RA BKN008 OVC015
     FM291330 08015G25KT 6SM -RA SCT010 OVC020=

USA.gov is the U.S. government's official web portal to all federal, state and local government web resources and services.